createdAt,value
2019-01-09T00:02:18.175Z,69.11
2019-01-09T00:06:24.266Z,69.73
2019-01-09T00:10:29.454Z,69.54
2019-01-09T00:14:34.577Z,69.41
2019-01-09T00:18:39.722Z,68.88
2019-01-09T00:22:44.923Z,69.24
2019-01-09T00:26:50.064Z,69.37
2019-01-09T00:30:55.229Z,68.71
2019-01-09T00:35:00.321Z,69.20
2019-01-09T00:39:06.693Z,69.10
2019-01-09T00:43:11.846Z,69.37
2019-01-09T00:47:17.088Z,69.44
2019-01-09T00:51:23.163Z,69.80
2019-01-09T00:55:28.334Z,70.42
2019-01-09T00:59:33.461Z,70.47
2019-01-09T01:04:11.455Z,70.37
2019-01-09T01:09:02.164Z,70.99
2019-01-09T01:13:44.164Z,70.54
2019-01-09T01:18:13.387Z,70.87
2019-01-09T01:23:04.895Z,70.78
2019-01-09T01:27:50.819Z,69.88
2019-01-09T01:32:17.244Z,70.29
2019-01-09T01:36:49.656Z,69.88
2019-01-09T01:41:22.624Z,70.08
2019-01-09T01:46:02.775Z,70.59
2019-01-09T01:50:33.894Z,70.39
2019-01-09T01:54:55.678Z,70.46
2019-01-09T01:59:21.351Z,70.60
2019-01-09T02:03:43.309Z,70.03
2019-01-09T02:08:03.731Z,69.79
2019-01-09T02:12:46.384Z,69.79
2019-01-09T02:17:19.131Z,70.26
2019-01-09T02:21:56.278Z,69.77
2019-01-09T02:26:44.287Z,69.87
2019-01-09T02:31:26.017Z,69.64
2019-01-09T02:35:31.166Z,70.21
2019-01-09T02:39:36.338Z,69.88
2019-01-09T02:43:41.419Z,70.37
2019-01-09T02:47:46.469Z,70.50
2019-01-09T02:51:51.575Z,70.23
2019-01-09T02:55:56.725Z,69.86
2019-01-09T03:00:01.861Z,70.32
2019-01-09T03:04:07.018Z,70.22
2019-01-09T03:08:12.177Z,70.25
2019-01-09T03:12:17.393Z,70.48
2019-01-09T03:16:22.552Z,70.59
2019-01-09T03:20:28.111Z,70.47
2019-01-09T03:24:33.558Z,70.50
2019-01-09T03:28:38.646Z,70.24
2019-01-09T03:32:43.821Z,70.78
2019-01-09T03:36:48.947Z,71.54
2019-01-09T03:40:54.100Z,71.55
2019-01-09T03:44:59.685Z,71.05
2019-01-09T03:49:05.803Z,71.44
2019-01-09T03:53:10.987Z,71.57
2019-01-09T03:57:16.372Z,72.16
2019-01-09T04:01:21.475Z,72.18
2019-01-09T04:05:26.563Z,72.09
2019-01-09T04:09:31.755Z,72.20
2019-01-09T04:13:36.867Z,72.31
2019-01-09T04:17:41.788Z,72.62
2019-01-09T04:21:46.839Z,73.44
2019-01-09T04:25:51.911Z,73.68
2019-01-09T04:29:56.916Z,73.89
2019-01-09T04:34:02.004Z,74.29
2019-01-09T04:38:07.108Z,74.67
2019-01-09T04:42:12.148Z,74.74
2019-01-09T04:46:17.155Z,74.77
2019-01-09T04:50:24.484Z,75.10
2019-01-09T04:54:30.610Z,74.71
2019-01-09T04:58:35.621Z,74.51
2019-01-09T05:02:40.782Z,74.07
2019-01-09T05:06:45.821Z,73.86
2019-01-09T05:10:50.943Z,73.93
2019-01-09T05:14:56.102Z,73.81
2019-01-09T05:19:01.231Z,73.88
2019-01-09T05:23:06.462Z,74.13
2019-01-09T05:27:11.607Z,73.90
2019-01-09T05:31:17.107Z,73.97
2019-01-09T05:35:22.289Z,73.82
2019-01-09T05:39:27.390Z,74.21
2019-01-09T05:43:32.706Z,74.42
2019-01-09T05:47:37.884Z,74.66
2019-01-09T05:51:42.950Z,74.70
2019-01-09T05:55:47.985Z,74.61
2019-01-09T05:59:53.128Z,74.53
2019-01-09T06:03:59.759Z,74.60
2019-01-09T06:08:06.338Z,74.71
2019-01-09T06:12:11.454Z,75.08
2019-01-09T06:16:16.628Z,75.07
2019-01-09T06:20:22.867Z,75.11
2019-01-09T06:24:29.711Z,74.79
2019-01-09T06:28:34.836Z,75.09
2019-01-09T06:32:39.909Z,75.33
2019-01-09T06:36:44.956Z,75.04
2019-01-09T06:40:50.072Z,75.23
2019-01-09T06:44:55.191Z,74.81
2019-01-09T06:49:00.186Z,74.61
2019-01-09T06:53:06.154Z,74.61
2019-01-09T06:57:18.888Z,74.70
2019-01-09T07:01:24.051Z,74.69
2019-01-09T07:05:29.104Z,75.21
2019-01-09T07:09:34.762Z,75.05
2019-01-09T07:13:39.934Z,74.85
2019-01-09T07:17:45.084Z,74.66
2019-01-09T07:21:50.225Z,74.70
2019-01-09T07:25:55.294Z,74.67
2019-01-09T07:30:00.402Z,74.55
2019-01-09T07:34:06.733Z,74.79
2019-01-09T07:38:11.811Z,75.02
2019-01-09T07:42:16.833Z,74.92
2019-01-09T07:46:22.037Z,74.79
2019-01-09T07:50:27.073Z,74.79
2019-01-09T07:54:32.298Z,74.73
2019-01-09T07:58:37.393Z,74.65
2019-01-09T08:02:42.515Z,74.39
2019-01-09T08:06:47.592Z,74.02
2019-01-09T08:10:52.654Z,74.15
2019-01-09T08:14:57.698Z,74.01
2019-01-09T08:19:02.849Z,74.00
2019-01-09T08:23:08.004Z,73.62
2019-01-09T08:27:13.399Z,73.96
2019-01-09T08:31:18.693Z,73.07
2019-01-09T08:35:23.822Z,73.07
2019-01-09T08:39:29.605Z,72.89
2019-01-09T08:43:34.727Z,72.44
2019-01-09T08:47:39.896Z,72.45
2019-01-09T08:51:44.927Z,72.34
2019-01-09T08:55:49.989Z,72.04
2019-01-09T08:59:55.124Z,71.04
2019-01-09T09:04:00.294Z,70.67
2019-01-09T09:08:12.006Z,69.93
2019-01-09T09:12:12.858Z,68.90
2019-01-09T09:16:18.001Z,68.81
2019-01-09T09:20:23.167Z,69.74
2019-01-09T09:24:28.373Z,68.77
2019-01-09T09:28:33.707Z,68.30
2019-01-09T09:32:38.786Z,68.04
2019-01-09T09:36:43.866Z,67.60
2019-01-09T09:40:49.027Z,66.36
2019-01-09T09:44:54.423Z,65.72
2019-01-09T09:48:59.565Z,65.74
2019-01-09T09:53:04.913Z,65.43
2019-01-09T09:57:09.991Z,65.88
2019-01-09T10:01:15.462Z,65.74
2019-01-09T10:05:20.994Z,64.59
2019-01-09T10:09:26.512Z,64.16
2019-01-09T10:13:31.641Z,63.55
2019-01-09T10:17:36.796Z,65.75
2019-01-09T10:21:42.460Z,64.24
2019-01-09T10:25:47.596Z,65.17
2019-01-09T10:29:52.746Z,64.30
2019-01-09T10:33:58.052Z,64.54
2019-01-09T10:38:03.145Z,64.95
2019-01-09T10:42:08.490Z,63.09
2019-01-09T10:46:13.516Z,63.45
2019-01-09T10:50:19.308Z,60.75
2019-01-09T10:54:24.741Z,62.59
2019-01-09T10:58:29.913Z,61.04
2019-01-09T11:02:35.305Z,59.51
2019-01-09T11:06:40.377Z,60.11
2019-01-09T11:10:45.427Z,59.58
2019-01-09T11:14:50.567Z,60.38
2019-01-09T11:18:55.760Z,59.11
2019-01-09T11:23:00.912Z,59.69
2019-01-09T11:27:06.017Z,58.94
2019-01-09T11:31:11.162Z,60.16
2019-01-09T11:35:18.665Z,58.26
2019-01-09T11:39:24.063Z,60.22
2019-01-09T11:43:29.238Z,59.22
2019-01-09T11:47:34.284Z,58.93
2019-01-09T11:51:39.374Z,58.42
2019-01-09T11:55:44.357Z,57.63
2019-01-09T11:59:49.427Z,56.34
2019-01-09T12:03:54.675Z,56.00
2019-01-09T12:08:00.017Z,55.22
2019-01-09T12:12:05.227Z,55.94
2019-01-09T12:16:10.391Z,56.87
2019-01-09T12:20:17.598Z,56.43
2019-01-09T12:24:22.655Z,56.48
2019-01-09T12:28:27.763Z,56.48
2019-01-09T12:32:32.936Z,55.35
2019-01-09T12:36:38.021Z,55.08
2019-01-09T12:40:43.094Z,54.12
2019-01-09T12:44:48.365Z,53.82
2019-01-09T12:48:53.510Z,53.05
2019-01-09T12:52:59.036Z,53.25
2019-01-09T12:57:04.128Z,53.46
2019-01-09T13:01:09.341Z,50.74
2019-01-09T13:05:14.404Z,51.42
2019-01-09T13:09:22.244Z,52.74
2019-01-09T13:13:26.486Z,53.25
2019-01-09T13:17:31.545Z,52.55
2019-01-09T13:21:36.675Z,53.39
2019-01-09T13:25:42.026Z,50.30
2019-01-09T13:29:47.139Z,51.20
2019-01-09T13:33:52.189Z,51.20
2019-01-09T13:37:57.215Z,52.70
2019-01-09T13:42:02.324Z,50.97
2019-01-09T13:46:07.408Z,52.08
2019-01-09T13:50:12.784Z,52.31
2019-01-09T13:54:17.878Z,49.96
2019-01-09T13:58:22.973Z,49.44
2019-01-09T14:02:28.017Z,49.66
2019-01-09T14:06:33.055Z,50.86
2019-01-09T14:10:38.155Z,49.20
2019-01-09T14:14:43.250Z,51.84
2019-01-09T14:18:55.170Z,52.03
2019-01-09T14:22:56.007Z,52.92
2019-01-09T14:27:01.052Z,54.02
2019-01-09T14:31:06.085Z,53.18
2019-01-09T14:35:11.243Z,51.06
2019-01-09T14:39:16.438Z,50.90
2019-01-09T14:43:21.439Z,50.83
2019-01-09T14:47:26.602Z,51.19
2019-01-09T14:53:15.254Z,51.30
2019-01-09T14:56:41.237Z,51.29
2019-01-09T15:00:46.384Z,50.47
2019-01-09T15:04:51.674Z,50.45
2019-01-09T15:08:56.811Z,50.54
2019-01-09T15:13:02.158Z,51.21
2019-01-09T15:17:08.175Z,50.88
2019-01-09T15:21:13.212Z,50.73
2019-01-09T15:25:21.409Z,51.22
2019-01-09T15:29:26.626Z,52.68
2019-01-09T15:33:31.925Z,53.16
2019-01-09T15:37:37.008Z,53.75
2019-01-09T15:41:42.067Z,54.76
2019-01-09T15:45:47.253Z,54.55
2019-01-09T15:49:52.360Z,55.02
2019-01-09T15:53:57.547Z,55.66
2019-01-09T15:58:02.758Z,55.46
2019-01-09T16:02:07.949Z,56.05
2019-01-09T16:06:13.142Z,55.66
2019-01-09T16:10:18.573Z,54.69
2019-01-09T16:14:23.729Z,54.48
2019-01-09T16:18:28.912Z,54.73
2019-01-09T16:22:34.090Z,54.76
2019-01-09T16:26:42.313Z,55.78
2019-01-09T16:31:14.539Z,56.20
2019-01-09T16:35:20.769Z,56.56
2019-01-09T16:39:30.762Z,56.50
2019-01-09T16:43:32.772Z,55.37
2019-01-09T16:47:37.812Z,56.17
2019-01-09T16:51:42.908Z,56.46
2019-01-09T16:55:48.003Z,55.79
2019-01-09T16:59:53.127Z,56.22
2019-01-09T17:03:58.257Z,56.69
2019-01-09T17:08:03.380Z,57.64
2019-01-09T17:12:08.492Z,57.22
2019-01-09T17:16:13.889Z,57.80
2019-01-09T17:20:20.009Z,57.69
2019-01-09T17:24:25.126Z,58.25
2019-01-09T17:28:30.249Z,58.42
2019-01-09T17:32:35.468Z,58.45
2019-01-09T17:36:40.649Z,58.87
2019-01-09T17:40:45.758Z,58.72
2019-01-09T17:44:50.831Z,58.89
2019-01-09T17:48:56.177Z,59.46
2019-01-09T17:53:01.405Z,58.96
2019-01-09T17:57:07.527Z,59.31
2019-01-09T18:01:12.710Z,58.90
2019-01-09T18:05:18.081Z,59.27
2019-01-09T18:09:23.345Z,59.68
2019-01-09T18:13:28.468Z,59.99
2019-01-09T18:17:33.572Z,59.88
2019-01-09T18:21:38.727Z,59.95
2019-01-09T18:25:43.883Z,59.95
2019-01-09T18:29:48.950Z,59.94
2019-01-09T18:34:18.335Z,59.88
2019-01-09T18:38:46.070Z,60.34
2019-01-09T18:43:51.009Z,60.88
2019-01-09T18:48:32.807Z,61.16
2019-01-09T18:52:51.631Z,61.24
2019-01-09T18:56:58.719Z,61.48
2019-01-09T19:01:03.962Z,61.30
2019-01-09T19:05:10.630Z,61.29
2019-01-09T19:09:15.694Z,61.24
2019-01-09T19:13:20.956Z,61.95
2019-01-09T19:17:26.171Z,62.30
2019-01-09T19:21:31.251Z,62.12
2019-01-09T19:25:36.600Z,61.83
2019-01-09T19:29:41.887Z,61.71
2019-01-09T19:33:47.280Z,62.25
2019-01-09T19:37:53.435Z,62.80
2019-01-09T19:41:58.573Z,62.75
2019-01-09T19:46:03.872Z,63.09
2019-01-09T19:50:12.336Z,62.93
2019-01-09T19:54:18.025Z,62.68
2019-01-09T19:58:23.258Z,62.62
2019-01-09T20:02:28.419Z,63.04
2019-01-09T20:06:33.547Z,63.25
2019-01-09T20:10:39.135Z,63.35
2019-01-09T20:14:44.290Z,63.55
2019-01-09T20:18:50.061Z,63.34
2019-01-09T20:22:56.059Z,62.93
2019-01-09T20:27:01.132Z,63.12
2019-01-09T20:31:07.713Z,63.50
2019-01-09T20:35:13.296Z,63.66
2019-01-09T20:39:18.387Z,64.26
2019-01-09T20:43:24.602Z,64.07
2019-01-09T20:47:30.761Z,64.04
2019-01-09T20:51:37.255Z,64.41
2019-01-09T20:55:44.414Z,64.30
2019-01-09T20:59:49.505Z,64.53
2019-01-09T21:03:55.679Z,64.76
2019-01-09T21:08:02.390Z,64.88
2019-01-09T21:12:07.709Z,65.06
2019-01-09T21:16:12.864Z,65.74
2019-01-09T21:20:18.979Z,65.14
2019-01-09T21:24:24.126Z,65.52
2019-01-09T21:28:38.936Z,65.48
2019-01-09T21:32:44.368Z,65.65
2019-01-09T21:36:51.636Z,65.97
2019-01-09T21:40:56.812Z,65.77
2019-01-09T21:45:04.893Z,66.10
2019-01-09T21:49:10.238Z,66.54
2019-01-09T21:53:17.189Z,66.00
2019-01-09T21:57:24.203Z,66.11
2019-01-09T22:01:29.578Z,66.33
2019-01-09T22:05:34.955Z,66.55
2019-01-09T22:09:40.037Z,66.86
2019-01-09T22:13:45.954Z,66.68
2019-01-09T22:17:52.122Z,66.79
2019-01-09T22:21:58.217Z,66.87
2019-01-09T22:26:04.611Z,66.83
2019-01-09T22:30:56.724Z,67.38
2019-01-09T22:35:04.663Z,67.87
2019-01-09T22:39:10.898Z,68.33
2019-01-09T22:43:29.111Z,68.21
2019-01-09T22:47:35.744Z,68.49
2019-01-09T22:51:40.831Z,67.94
2019-01-09T22:55:45.876Z,68.37
2019-01-09T22:59:50.916Z,68.51
2019-01-09T23:03:56.544Z,68.91
2019-01-09T23:08:01.620Z,68.92
2019-01-09T23:12:06.759Z,68.96
2019-01-09T23:16:12.873Z,69.16
2019-01-09T23:20:19.002Z,69.17
2019-01-09T23:24:24.166Z,69.30
2019-01-09T23:28:29.310Z,69.09
2019-01-09T23:32:34.495Z,69.31
2019-01-09T23:36:41.990Z,69.06
2019-01-09T23:40:47.175Z,68.92
2019-01-09T23:44:52.349Z,69.05
2019-01-09T23:48:59.799Z,69.24
2019-01-09T23:53:04.895Z,69.14
2019-01-09T23:57:10.013Z,69.41
